< Cyclone 199502 1995 Season Cyclone 199504 >
Cyclone 199503 (VIOLET)
General InformationTrack Information on Google MapsDetailed Wind InformationList of All Images || ResourceGoogle EarthGE AnimationAtom FeedGeoJSON
Detalied Best Track (Time Zone = UTC)
Year Month Day Hour Lat. Long. Pressure (hPa) Wind (kt) Class Image Chart
1995 3 2 00 -13.2 154.3 1000 25 2 Image --
1995 3 2 06 -14.1 154.0 998 30 2 Image --
1995 3 2 12 -14.5 153.7 995 35 3 Image --
1995 3 2 18 -15.0 153.4 995 40 3 Image --
1995 3 3 00 -15.4 153.1 992 40 3 Image --
1995 3 3 06 -15.9 152.5 990 45 3 Image --
1995 3 3 12 -16.5 152.6 990 45 3 Image --
1995 3 3 18 -16.9 152.7 990 45 3 Image --
1995 3 4 00 -17.2 153.0 985 50 4 Image --
1995 3 4 06 -17.7 153.3 985 55 4 Image --
1995 3 4 12 -18.1 153.7 980 55 4 Image --
1995 3 4 18 -18.9 154.5 975 65 5 Image --
1995 3 5 00 -19.7 155.5 970 75 5 Image --
1995 3 5 06 -20.7 157.0 965 80 5 Image --
1995 3 5 12 -22.1 158.1 960 85 5 Image --
1995 3 5 18 -24.0 159.1 965 80 5 Image --
1995 3 6 00 -26.1 159.8 970 70 5 Image --
1995 3 6 06 -27.9 160.0 970 65 5 Image --
1995 3 6 12 -30.0 159.1 975 60 4 Image --
1995 3 6 18 -30.4 156.8 980 55 4 Image --
1995 3 7 00 -30.1 155.0 980 55 4 Image --
1995 3 7 06 -29.4 154.2 985 50 4 Image --
1995 3 7 12 -28.8 153.9 988 45 3 Image --
1995 3 7 18 -28.5 154.1 990 40 3 Image --
1995 3 8 00 -29.1 155.1 994 35 3 Image --
< Cyclone 199502 1995 Season Cyclone 199504 >

Help